Time;durP1;ratioP1;P1;durP2;ratioP2;P2;SDS_P1;SDS_P2;PMS_P1;PMS_P2;Temp;Humidity;BMP_temperature;BMP_pressure;BME280_temperature;BME280_humidity;BME280_pressure;Samples;Min_cycle;Max_cycle;Signal;HPM_P1;HPM_P2
2022/06/11 00:01:13;;;;;;;7.15;3.13;;;18.00;99.90;;;;;;5054802;28;20047;-58
2022/06/11 00:03:41;;;;;;;8.00;3.50;;;17.90;99.90;;;;;;5053004;28;20665;-59
2022/06/11 00:06:08;;;;;;;7.22;3.35;;;17.90;99.90;;;;;;5053875;28;20530;-60
2022/06/11 00:08:34;;;;;;;10.85;3.65;;;17.80;99.90;;;;;;5054991;28;20668;-58
2022/06/11 00:11:00;;;;;;;6.60;3.80;;;17.70;99.90;;;;;;5052349;28;20441;-59
2022/06/11 00:13:26;;;;;;;5.50;3.10;;;17.70;99.90;;;;;;5053058;28;20072;-59
2022/06/11 00:15:54;;;;;;;7.10;3.10;;;17.70;99.90;;;;;;5061804;28;20086;-59
2022/06/11 00:18:22;;;;;;;7.15;3.13;;;17.60;99.90;;;;;;5059127;28;20169;-60
2022/06/11 00:20:48;;;;;;;7.72;3.38;;;17.50;99.90;;;;;;5053268;28;20127;-60
2022/06/11 00:23:14;;;;;;;8.00;3.47;;;17.40;99.90;;;;;;5056123;28;20151;-59
2022/06/11 00:25:41;;;;;;;7.18;3.35;;;17.30;99.90;;;;;;5049498;28;20032;-60
2022/06/11 00:28:07;;;;;;;7.22;3.08;;;17.30;99.90;;;;;;5058735;28;20479;-58
2022/06/11 00:30:34;;;;;;;6.05;3.33;;;17.20;99.90;;;;;;5052178;28;20053;-59
2022/06/11 00:33:00;;;;;;;5.70;2.90;;;17.10;99.90;;;;;;5049715;28;20529;-59
2022/06/11 00:35:27;;;;;;;8.18;3.40;;;17.10;99.90;;;;;;5069902;28;20052;-59
2022/06/11 00:37:53;;;;;;;11.07;3.90;;;17.00;99.90;;;;;;5051241;28;20074;-59
2022/06/11 00:40:23;;;;;;;8.90;3.63;;;17.00;99.90;;;;;;5053342;28;20123;-59
2022/06/11 00:42:49;;;;;;;9.25;3.47;;;16.90;99.90;;;;;;5048485;28;20646;-58
2022/06/11 00:45:46;;;;;;;9.25;3.67;;;16.90;99.90;;;;;;5037173;28;20052;-58
2022/06/11 00:48:26;;;;;;;7.47;3.35;;;16.80;99.90;;;;;;5052647;28;20491;-60
2022/06/11 00:51:05;;;;;;;6.13;3.50;;;16.80;99.90;;;;;;5051623;28;20049;-58
2022/06/11 00:53:37;;;;;;;8.18;3.47;;;16.70;99.90;;;;;;5052058;28;20048;-59
2022/06/11 00:56:18;;;;;;;10.48;3.95;;;16.60;99.90;;;;;;5054497;28;20191;-59
2022/06/11 00:58:46;;;;;;;6.72;3.20;;;16.60;99.90;;;;;;5052541;28;20051;-60
2022/06/11 01:01:14;;;;;;;8.40;3.55;;;16.60;99.90;;;;;;5052592;28;20047;-60
2022/06/11 01:03:43;;;;;;;5.43;3.22;;;16.50;99.90;;;;;;5051932;28;20051;-58
2022/06/11 01:06:24;;;;;;;11.85;3.78;;;16.40;99.90;;;;;;5052699;28;20131;-59
2022/06/11 01:08:55;;;;;;;7.68;3.25;;;16.40;99.90;;;;;;5056075;28;20418;-59
2022/06/11 01:11:36;;;;;;;8.55;3.90;;;16.30;99.90;;;;;;5051301;28;20045;-59
2022/06/11 01:14:16;;;;;;;9.80;3.70;;;16.30;99.90;;;;;;5052699;28;20048;-59
2022/06/11 01:17:19;;;;;;;8.40;3.75;;;16.20;99.90;;;;;;5051405;28;20060;-59
2022/06/11 01:20:23;;;;;;;12.38;3.65;;;16.20;99.90;;;;;;5052968;28;20797;-59
2022/06/11 01:23:10;;;;;;;9.48;3.63;;;16.10;99.90;;;;;;5042657;28;20059;-59
2022/06/11 01:25:42;;;;;;;9.52;3.00;;;16.10;99.90;;;;;;5052936;28;20049;-59
2022/06/11 01:28:28;;;;;;;12.32;3.50;;;16.00;99.90;;;;;;5059783;28;20565;-59
2022/06/11 01:31:10;;;;;;;11.68;3.20;;;16.00;99.90;;;;;;5053406;28;20418;-58
2022/06/11 01:33:55;;;;;;;7.88;2.72;;;16.00;99.90;;;;;;5050790;28;20160;-59
2022/06/11 01:36:32;;;;;;;11.88;2.67;;;15.90;99.90;;;;;;5051630;28;20040;-57
2022/06/11 01:39:11;;;;;;;7.03;2.67;;;15.90;99.90;;;;;;5052078;28;20510;-58
2022/06/11 01:42:20;;;;;;;10.82;3.13;;;15.90;99.90;;;;;;5054181;28;20045;-59
2022/06/11 01:45:00;;;;;;;7.38;2.85;;;15.90;99.90;;;;;;5036893;28;20067;-59
2022/06/11 01:47:26;;;;;;;8.18;2.55;;;15.80;99.90;;;;;;5052256;28;20033;-59
2022/06/11 01:49:52;;;;;;;10.10;2.40;;;15.70;99.90;;;;;;5046898;28;20049;-59
2022/06/11 01:52:39;;;;;;;11.48;2.53;;;15.70;99.90;;;;;;5050738;28;20044;-59
2022/06/11 01:55:17;;;;;;;9.25;2.20;;;15.70;99.90;;;;;;5051204;28;20144;-59
2022/06/11 01:58:05;;;;;;;8.75;2.70;;;15.70;99.90;;;;;;5035152;28;20147;-58
2022/06/11 02:00:41;;;;;;;7.07;2.50;;;15.70;99.90;;;;;;5052149;28;20048;-58
2022/06/11 02:03:40;;;;;;;10.57;2.67;;;15.60;99.90;;;;;;5046358;28;20587;-61
2022/06/11 02:06:23;;;;;;;7.38;2.30;;;15.60;99.90;;;;;;5035320;28;20053;-58
2022/06/11 02:09:11;;;;;;;10.27;3.03;;;15.50;99.90;;;;;;5049361;28;20045;-58
2022/06/11 02:11:45;;;;;;;8.43;2.13;;;15.50;99.90;;;;;;5054692;28;20075;-60
2022/06/11 02:14:25;;;;;;;7.28;2.45;;;15.40;99.90;;;;;;5050829;28;20792;-60
2022/06/11 02:16:59;;;;;;;10.38;2.83;;;15.40;99.90;;;;;;5044939;28;20532;-60
2022/06/11 02:19:54;;;;;;;10.98;2.45;;;15.30;99.90;;;;;;5051198;28;20044;-60
2022/06/11 02:22:32;;;;;;;11.25;2.45;;;15.30;99.90;;;;;;5049566;28;20513;-60
2022/06/11 02:25:36;;;;;;;8.13;2.47;;;15.20;99.90;;;;;;5048724;28;20048;-59
2022/06/11 02:28:06;;;;;;;10.52;2.78;;;15.20;99.90;;;;;;5051125;28;20125;-60
2022/06/11 02:30:34;;;;;;;13.55;3.10;;;15.10;99.90;;;;;;5051591;28;20151;-60
2022/06/11 02:33:01;;;;;;;7.90;2.40;;;15.10;99.90;;;;;;5045043;28;20115;-60
2022/06/11 02:35:53;;;;;;;12.57;2.67;;;15.00;99.90;;;;;;5054394;28;20048;-60
2022/06/11 02:38:23;;;;;;;12.60;2.67;;;15.00;99.90;;;;;;5058732;28;20044;-60
2022/06/11 02:40:59;;;;;;;10.93;2.67;;;15.00;99.90;;;;;;5055464;28;20431;-59
2022/06/11 02:43:25;;;;;;;8.65;2.65;;;15.00;99.90;;;;;;5055641;28;20604;-60
2022/06/11 02:45:51;;;;;;;6.30;2.47;;;15.00;99.90;;;;;;5054489;28;20095;-60
2022/06/11 02:48:17;;;;;;;8.55;2.38;;;14.90;99.90;;;;;;5055491;28;20190;-60
2022/06/11 02:50:46;;;;;;;8.55;2.60;;;14.90;99.90;;;;;;5056871;28;20052;-60
2022/06/11 02:53:13;;;;;;;7.75;2.60;;;14.90;99.90;;;;;;5054706;28;20049;-60
2022/06/11 02:55:40;;;;;;;10.38;2.78;;;14.90;99.90;;;;;;5053014;28;20517;-59
2022/06/11 02:58:08;;;;;;;11.15;2.78;;;14.80;99.90;;;;;;5054715;28;20051;-60
2022/06/11 03:00:38;;;;;;;7.50;2.97;;;14.80;99.90;;;;;;5050558;28;20491;-59
2022/06/11 03:03:04;;;;;;;9.63;2.40;;;14.80;99.90;;;;;;5058376;28;20048;-59
2022/06/11 03:05:33;;;;;;;8.80;2.50;;;14.70;99.90;;;;;;5052486;28;22069;-60
2022/06/11 03:08:00;;;;;;;9.68;2.92;;;14.70;99.90;;;;;;5059963;28;20135;-60
2022/06/11 03:10:27;;;;;;;13.85;3.25;;;14.60;99.90;;;;;;5052540;28;20040;-60
2022/06/11 03:12:54;;;;;;;8.75;3.00;;;14.60;99.90;;;;;;5051413;28;20809;-59
2022/06/11 03:15:22;;;;;;;9.27;2.53;;;14.60;99.90;;;;;;5053070;28;20143;-60
2022/06/11 03:17:50;;;;;;;11.35;3.20;;;14.60;99.90;;;;;;5058320;28;20060;-60
2022/06/11 03:20:18;;;;;;;10.57;2.83;;;14.60;99.90;;;;;;5053488;28;20041;-60
2022/06/11 03:22:44;;;;;;;10.02;2.85;;;14.60;99.90;;;;;;5053607;28;20044;-59
2022/06/11 03:25:10;;;;;;;12.02;2.90;;;14.50;99.90;;;;;;5052338;28;20059;-59
2022/06/11 03:27:38;;;;;;;6.72;2.63;;;14.50;99.90;;;;;;5058188;28;20045;-59
2022/06/11 03:30:06;;;;;;;12.07;2.90;;;14.50;99.90;;;;;;5053681;28;20580;-57
2022/06/11 03:32:33;;;;;;;10.10;2.90;;;14.50;99.90;;;;;;5054377;28;20505;-59
2022/06/11 03:34:58;;;;;;;13.43;3.03;;;14.50;99.90;;;;;;5051630;28;20036;-59
2022/06/11 03:37:24;;;;;;;9.02;2.70;;;14.50;99.90;;;;;;5037779;28;20060;-59
2022/06/11 03:39:50;;;;;;;12.35;3.10;;;14.40;99.90;;;;;;5055858;28;20045;-58
2022/06/11 03:42:17;;;;;;;10.20;3.40;;;14.40;99.90;;;;;;5052173;28;20117;-58
2022/06/11 03:44:43;;;;;;;12.55;3.63;;;14.40;99.90;;;;;;5052893;28;20195;-59
2022/06/11 03:47:09;;;;;;;8.70;2.75;;;14.40;99.90;;;;;;5048450;28;20497;-58
2022/06/11 03:49:36;;;;;;;8.75;2.67;;;14.40;99.90;;;;;;5054802;28;20036;-59
2022/06/11 03:52:03;;;;;;;10.55;3.30;;;14.30;99.90;;;;;;5046566;28;20140;-59
2022/06/11 03:54:29;;;;;;;12.38;3.63;;;14.30;99.90;;;;;;5050154;28;20051;-59
2022/06/11 03:56:55;;;;;;;14.70;3.72;;;14.30;99.90;;;;;;5051793;28;20158;-59
2022/06/11 03:59:21;;;;;;;13.98;3.53;;;14.30;99.90;;;;;;5057579;28;20131;-59
2022/06/11 04:01:47;;;;;;;14.65;3.10;;;14.30;99.90;;;;;;5058130;28;20060;-58
2022/06/11 04:04:16;;;;;;;10.50;3.30;;;14.30;99.90;;;;;;5052318;28;20709;-59
2022/06/11 04:06:56;;;;;;;14.38;4.28;;;14.40;99.90;;;;;;5054642;28;20074;-59
2022/06/11 04:09:34;;;;;;;12.45;3.80;;;14.40;99.90;;;;;;5054502;28;20051;-59
2022/06/11 04:12:01;;;;;;;11.77;4.07;;;14.40;99.90;;;;;;5057328;28;20051;-59
2022/06/11 04:14:27;;;;;;;9.23;3.25;;;14.40;99.90;;;;;;5050337;28;20835;-58
2022/06/11 04:17:08;;;;;;;13.52;4.18;;;14.40;99.90;;;;;;5046293;28;20049;-59
2022/06/11 04:19:37;;;;;;;14.40;3.90;;;14.50;99.90;;;;;;5052313;28;20051;-59
2022/06/11 04:22:04;;;;;;;14.38;3.78;;;14.50;99.90;;;;;;5054530;28;20109;-57
2022/06/11 04:24:31;;;;;;;17.83;4.40;;;14.50;99.90;;;;;;5050994;28;20048;-59
2022/06/11 04:26:59;;;;;;;12.02;3.75;;;14.60;99.90;;;;;;5048293;28;20459;-58
2022/06/11 04:29:31;;;;;;;14.52;3.78;;;14.60;99.90;;;;;;5051877;28;20438;-58
2022/06/11 04:31:59;;;;;;;13.45;3.78;;;14.60;99.90;;;;;;5054523;28;20058;-59
2022/06/11 04:34:26;;;;;;;12.43;3.15;;;14.60;99.90;;;;;;5032692;28;20063;-58
2022/06/11 04:36:53;;;;;;;10.77;3.70;;;14.70;99.90;;;;;;5053368;28;20462;-58
2022/06/11 04:39:24;;;;;;;16.27;4.00;;;14.70;99.90;;;;;;5034099;28;20047;-59
2022/06/11 04:41:51;;;;;;;15.57;3.85;;;14.70;99.90;;;;;;5055655;28;20048;-58
2022/06/11 04:44:17;;;;;;;15.27;3.88;;;14.70;99.90;;;;;;5053603;28;20040;-58
2022/06/11 04:46:43;;;;;;;17.90;4.13;;;14.80;99.90;;;;;;5051185;28;20217;-59
2022/06/11 04:49:10;;;;;;;16.48;3.88;;;14.80;99.90;;;;;;5052220;28;20044;-58
2022/06/11 04:51:36;;;;;;;15.82;3.30;;;14.90;99.90;;;;;;5051998;28;20040;-59
2022/06/11 04:54:03;;;;;;;15.73;3.60;;;14.90;99.90;;;;;;5050826;28;20694;-59
2022/06/11 04:56:30;;;;;;;18.48;3.95;;;15.00;99.90;;;;;;5051936;28;20132;-57
2022/06/11 04:58:57;;;;;;;18.23;3.85;;;15.00;99.90;;;;;;5048877;28;20043;-59
2022/06/11 05:01:23;;;;;;;13.00;3.40;;;15.00;99.90;;;;;;5053734;28;20040;-59
2022/06/11 05:03:50;;;;;;;15.40;3.40;;;15.10;99.90;;;;;;5047604;28;20041;-59
2022/06/11 05:06:32;;;;;;;16.13;3.55;;;15.10;99.90;;;;;;5048498;28;20178;-59
2022/06/11 05:08:58;;;;;;;16.63;3.80;;;15.10;99.90;;;;;;5052308;28;20740;-59
2022/06/11 05:11:24;;;;;;;14.18;4.53;;;15.20;99.90;;;;;;5054500;28;20581;-59
2022/06/11 05:13:50;;;;;;;16.73;4.00;;;15.30;99.90;;;;;;5043751;28;20060;-58
2022/06/11 05:16:19;;;;;;;16.35;4.13;;;15.30;99.90;;;;;;5049001;28;20052;-59
2022/06/11 05:18:45;;;;;;;11.63;3.50;;;15.30;99.90;;;;;;5054821;28;20652;-59
2022/06/11 05:21:11;;;;;;;16.98;3.60;;;15.40;99.90;;;;;;5042792;28;20175;-58
2022/06/11 05:23:37;;;;;;;20.80;4.05;;;15.40;99.90;;;;;;5048433;28;20136;-58
2022/06/11 05:26:03;;;;;;;17.40;4.28;;;15.50;99.90;;;;;;5055360;28;20037;-58
2022/06/11 05:28:31;;;;;;;19.83;4.00;;;15.50;99.90;;;;;;5049629;28;20044;-59
2022/06/11 05:30:58;;;;;;;22.08;4.15;;;15.60;99.90;;;;;;5046451;28;20052;-59
2022/06/11 05:33:25;;;;;;;21.63;4.63;;;15.60;99.90;;;;;;5055297;28;20495;-59
2022/06/11 05:35:52;;;;;;;17.08;4.53;;;15.60;99.90;;;;;;5050940;28;20048;-58
2022/06/11 05:38:23;;;;;;;26.17;5.57;;;15.70;99.90;;;;;;5056111;28;20040;-59
2022/06/11 05:40:50;;;;;;;22.90;5.28;;;15.70;99.90;;;;;;5056414;28;20045;-59
2022/06/11 05:43:16;;;;;;;25.65;5.10;;;15.70;99.90;;;;;;5052238;28;20048;-59
2022/06/11 05:45:53;;;;;;;23.40;4.93;;;15.80;99.90;;;;;;5048853;28;20060;-59
2022/06/11 05:48:24;;;;;;;31.15;5.07;;;15.80;99.90;;;;;;5047457;28;20044;-59
2022/06/11 05:50:52;;;;;;;24.20;5.60;;;15.80;99.90;;;;;;5044148;28;20492;-58
2022/06/11 05:53:20;;;;;;;23.48;6.03;;;15.90;99.90;;;;;;5060007;28;20486;-59
2022/06/11 05:55:48;;;;;;;22.67;5.07;;;15.90;99.90;;;;;;5056423;28;20125;-59
2022/06/11 05:58:19;;;;;;;22.58;5.50;;;15.90;99.90;;;;;;5059973;28;20044;-59
2022/06/11 06:00:46;;;;;;;27.95;5.72;;;16.00;99.90;;;;;;5060641;28;20048;-59
2022/06/11 06:03:12;;;;;;;25.38;5.72;;;16.00;99.90;;;;;;5058606;28;20419;-58
2022/06/11 06:05:39;;;;;;;27.13;5.70;;;16.10;99.90;;;;;;5057439;28;20045;-59
2022/06/11 06:08:07;;;;;;;25.00;5.68;;;16.10;99.90;;;;;;5061728;28;20040;-59
2022/06/11 06:10:32;;;;;;;31.67;6.25;;;16.20;99.90;;;;;;5060626;28;20386;-58
2022/06/11 06:12:58;;;;;;;33.30;5.82;;;16.20;99.90;;;;;;5055964;28;20160;-59
2022/06/11 06:15:26;;;;;;;28.52;6.35;;;16.30;99.90;;;;;;5053597;28;20079;-57
2022/06/11 06:17:53;;;;;;;28.05;5.68;;;16.30;99.90;;;;;;5041942;28;20058;-60
2022/06/11 06:20:21;;;;;;;27.23;5.82;;;16.40;99.90;;;;;;5046340;28;20118;-61
2022/06/11 06:22:48;;;;;;;32.03;6.32;;;16.40;99.90;;;;;;5038775;28;20809;-61
2022/06/11 06:25:17;;;;;;;20.55;6.13;;;16.50;99.90;;;;;;5018684;28;20051;-62
2022/06/11 06:27:43;;;;;;;29.35;6.57;;;16.60;99.90;;;;;;5041394;28;20124;-61
2022/06/11 06:30:09;;;;;;;27.27;6.25;;;16.60;99.90;;;;;;5043405;28;20048;-62
2022/06/11 06:32:35;;;;;;;28.67;6.55;;;16.70;99.90;;;;;;5008088;28;20055;-60
2022/06/11 06:35:01;;;;;;;20.58;5.25;;;16.80;99.90;;;;;;5045390;28;20053;-60
2022/06/11 06:37:27;;;;;;;27.55;5.72;;;16.80;99.90;;;;;;5053087;28;20052;-61
2022/06/11 06:39:53;;;;;;;22.55;6.13;;;16.90;99.90;;;;;;5056884;28;20545;-60
2022/06/11 06:42:19;;;;;;;30.92;6.07;;;17.00;99.90;;;;;;5054826;28;20113;-60
2022/06/11 06:44:46;;;;;;;25.95;6.15;;;17.00;99.90;;;;;;5046847;28;20639;-61
2022/06/11 06:47:13;;;;;;;28.00;5.95;;;17.10;99.90;;;;;;5045484;28;20093;-60
2022/06/11 06:49:39;;;;;;;26.00;5.72;;;17.10;99.90;;;;;;5062769;28;20037;-62
2022/06/11 06:52:05;;;;;;;29.88;6.55;;;17.20;99.90;;;;;;5029621;28;20908;-61
2022/06/11 06:54:30;;;;;;;29.42;7.22;;;17.30;99.90;;;;;;5031426;28;20339;-60
2022/06/11 06:56:56;;;;;;;22.92;5.07;;;17.30;99.90;;;;;;5044169;28;20057;-60
2022/06/11 06:59:22;;;;;;;27.05;6.10;;;17.40;99.90;;;;;;5044169;28;20041;-60
2022/06/11 07:01:49;;;;;;;28.60;6.40;;;17.50;99.90;;;;;;5043772;28;20199;-61
2022/06/11 07:04:14;;;;;;;24.88;5.32;;;17.50;99.90;;;;;;5040416;28;20059;-62
2022/06/11 07:06:40;;;;;;;22.40;5.35;;;17.60;99.90;;;;;;5051439;28;20068;-61
2022/06/11 07:09:07;;;;;;;29.50;5.70;;;17.60;99.90;;;;;;5043943;28;20340;-61
2022/06/11 07:11:33;;;;;;;27.92;5.90;;;17.70;99.90;;;;;;5044964;28;20058;-61
2022/06/11 07:13:59;;;;;;;25.92;5.88;;;17.80;99.90;;;;;;5030668;28;20048;-62
2022/06/11 07:16:34;;;;;;;25.60;6.00;;;17.80;99.90;;;;;;5039924;28;21348;-61
2022/06/11 07:19:04;;;;;;;27.55;6.38;;;17.90;99.90;;;;;;5060053;28;20056;-62
2022/06/11 07:21:37;;;;;;;35.70;6.22;;;18.00;99.90;;;;;;5048209;28;20052;-61
2022/06/11 07:24:10;;;;;;;26.75;5.70;;;18.10;99.90;;;;;;5051958;28;20109;-61
2022/06/11 07:26:39;;;;;;;28.90;5.95;;;18.10;99.90;;;;;;5050725;28;20048;-62
2022/06/11 07:29:09;;;;;;;27.25;5.60;;;18.20;99.90;;;;;;5056861;28;20063;-61
2022/06/11 07:31:36;;;;;;;22.63;5.85;;;18.30;99.90;;;;;;5051401;28;20044;-60
2022/06/11 07:34:02;;;;;;;20.65;5.50;;;18.40;99.90;;;;;;5045847;28;20063;-61
2022/06/11 07:36:29;;;;;;;29.77;6.35;;;18.50;99.90;;;;;;5026368;28;20040;-62
2022/06/11 07:38:55;;;;;;;34.80;6.25;;;18.60;99.90;;;;;;5049192;28;20056;-60
2022/06/11 07:41:21;;;;;;;26.05;5.75;;;18.70;99.90;;;;;;5049849;28;20080;-61
2022/06/11 07:43:46;;;;;;;32.72;6.25;;;18.70;99.90;;;;;;5035122;28;20048;-62
2022/06/11 07:46:12;;;;;;;21.10;5.47;;;18.80;99.90;;;;;;5061859;28;20067;-62
2022/06/11 07:48:39;;;;;;;35.15;6.05;;;18.90;99.90;;;;;;5044697;28;20885;-61
2022/06/11 07:51:04;;;;;;;26.25;5.50;;;18.90;99.90;;;;;;5061949;28;20045;-61
2022/06/11 07:53:31;;;;;;;23.63;5.82;;;18.90;99.90;;;;;;5052843;28;20106;-61
2022/06/11 07:55:58;;;;;;;21.05;4.85;;;18.90;99.90;;;;;;5049911;28;20055;-60
2022/06/11 07:58:30;;;;;;;25.83;5.57;;;19.00;99.90;;;;;;5048746;28;20113;-62
2022/06/11 08:00:57;;;;;;;;;;;19.10;99.90;;;;;;5047418;28;20132;-62
2022/06/11 08:03:24;;;;;;;22.95;4.50;;;19.20;99.90;;;;;;5045704;28;19935;-61
2022/06/11 08:05:51;;;;;;;27.50;5.05;;;19.30;99.90;;;;;;5046911;28;20051;-62
2022/06/11 08:08:18;;;;;;;21.08;4.85;;;19.50;99.90;;;;;;5027493;28;20526;-60
2022/06/11 08:10:45;;;;;;;23.88;5.53;;;19.60;99.90;;;;;;5041692;28;20048;-61
2022/06/11 08:13:12;;;;;;;25.20;5.03;;;19.70;99.90;;;;;;5042718;28;20040;-61
2022/06/11 08:15:39;;;;;;;20.95;4.78;;;19.70;99.90;;;;;;5026019;28;20122;-61
2022/06/11 08:18:06;;;;;;;24.17;5.45;;;19.70;99.90;;;;;;5033514;28;20147;-61
2022/06/11 08:20:33;;;;;;;26.02;5.13;;;19.70;99.90;;;;;;5047226;28;20540;-61
2022/06/11 08:22:59;;;;;;;29.50;5.30;;;19.80;99.90;;;;;;5041971;28;20078;-61
2022/06/11 08:25:25;;;;;;;23.88;5.68;;;19.90;99.90;;;;;;5050158;28;21827;-61
2022/06/11 08:27:52;;;;;;;24.13;5.90;;;19.90;99.90;;;;;;5048219;28;20051;-61
2022/06/11 08:30:21;;;;;;;22.90;4.63;;;20.00;99.90;;;;;;5050612;28;20044;-61
2022/06/11 08:32:47;;;;;;;25.95;5.10;;;20.10;99.90;;;;;;5050700;28;20051;-61
2022/06/11 08:35:15;;;;;;;23.40;4.65;;;20.10;99.90;;;;;;5040619;28;20110;-61
2022/06/11 08:37:41;;;;;;;22.20;5.93;;;20.10;99.90;;;;;;5052719;28;20063;-61
2022/06/11 08:40:13;;;;;;;18.75;4.22;;;20.10;99.90;;;;;;5048872;28;20044;-61
2022/06/11 08:42:42;;;;;;;18.92;4.95;;;20.10;99.90;;;;;;5049274;28;20044;-61
2022/06/11 08:45:21;;;;;;;22.10;5.07;;;20.10;99.90;;;;;;5050285;28;20063;-61
2022/06/11 08:47:56;;;;;;;22.65;5.25;;;20.10;99.90;;;;;;5051648;28;20049;-61
2022/06/11 08:50:57;;;;;;;24.00;4.93;;;20.20;99.90;;;;;;5047561;28;20040;-61
2022/06/11 08:53:23;;;;;;;23.95;4.55;;;20.30;99.90;;;;;;5055780;28;20084;-61
2022/06/11 08:55:49;;;;;;;20.83;5.25;;;20.50;99.90;;;;;;5060286;28;20131;-61
2022/06/11 08:58:34;;;;;;;21.15;4.90;;;20.60;99.90;;;;;;5061267;28;20059;-61
2022/06/11 09:01:04;;;;;;;21.48;4.25;;;20.80;99.90;;;;;;5052832;28;20203;-62
2022/06/11 09:03:40;;;;;;;21.48;4.70;;;21.00;99.90;;;;;;5032405;28;20041;-61
2022/06/11 09:06:27;;;;;;;25.80;5.43;;;21.10;99.90;;;;;;5038296;28;20068;-61
2022/06/11 09:09:38;;;;;;;20.88;4.00;;;21.10;99.90;;;;;;5050006;28;21204;-61
2022/06/11 09:12:12;;;;;;;16.35;4.32;;;20.90;99.20;;;;;;5047222;28;20059;-61
2022/06/11 09:14:53;;;;;;;15.10;3.95;;;20.90;99.10;;;;;;5046719;28;22799;-61
2022/06/11 09:17:44;;;;;;;18.50;3.80;;;20.90;99.60;;;;;;5045802;28;20144;-61
2022/06/11 09:20:49;;;;;;;19.25;3.88;;;21.10;99.40;;;;;;5050775;28;20055;-62
2022/06/11 09:23:24;;;;;;;19.17;4.15;;;21.30;98.00;;;;;;5046859;28;20617;-62
2022/06/11 09:26:23;;;;;;;17.58;3.30;;;21.40;98.00;;;;;;5060956;28;20036;-62
2022/06/11 09:29:12;;;;;;;17.55;4.05;;;21.50;97.60;;;;;;5048510;28;20063;-62
2022/06/11 09:31:43;;;;;;;18.65;3.95;;;21.50;96.60;;;;;;5038104;28;20071;-62
2022/06/11 09:34:42;;;;;;;15.15;3.50;;;21.60;95.80;;;;;;5045181;28;20071;-62
2022/06/11 09:37:17;;;;;;;14.27;4.07;;;21.60;96.40;;;;;;5041939;28;20923;-62
2022/06/11 09:39:49;;;;;;;12.32;3.45;;;21.70;95.30;;;;;;5051201;28;20503;-61
2022/06/11 09:42:27;;;;;;;17.02;3.80;;;21.60;94.90;;;;;;5050613;28;20773;-62
2022/06/11 09:45:04;;;;;;;16.40;3.50;;;21.50;94.50;;;;;;5052231;28;20076;-62
2022/06/11 09:47:54;;;;;;;11.77;3.03;;;21.50;94.00;;;;;;5033950;28;20036;-62
2022/06/11 09:50:41;;;;;;;11.45;2.60;;;21.50;93.30;;;;;;5052879;28;20503;-62
2022/06/11 09:53:58;;;;;;;14.10;3.20;;;21.50;92.50;;;;;;5048104;28;20048;-62
2022/06/11 09:56:37;;;;;;;16.70;3.60;;;21.30;91.30;;;;;;5015800;28;20070;-62
2022/06/11 09:59:18;;;;;;;14.73;3.70;;;21.30;92.20;;;;;;5047198;28;20080;-62
2022/06/11 10:01:51;;;;;;;16.63;3.30;;;21.40;92.70;;;;;;5051493;28;20127;-62
2022/06/11 10:04:24;;;;;;;14.52;3.05;;;21.50;91.70;;;;;;5034323;28;20956;-62
2022/06/11 10:06:57;;;;;;;16.75;3.40;;;21.40;91.10;;;;;;5049180;28;20045;-62
2022/06/11 10:09:30;;;;;;;14.52;3.47;;;21.30;91.60;;;;;;5051282;28;20067;-62
2022/06/11 10:12:10;;;;;;;16.00;3.25;;;21.40;91.30;;;;;;5051172;28;20091;-62
2022/06/11 10:14:55;;;;;;;15.45;3.55;;;21.40;90.30;;;;;;5048713;28;20080;-62
2022/06/11 10:17:34;;;;;;;13.65;2.78;;;21.30;88.20;;;;;;5047724;28;20399;-62
2022/06/11 10:20:12;;;;;;;11.63;2.85;;;21.40;88.10;;;;;;5048420;28;20960;-62
2022/06/11 10:22:54;;;;;;;16.10;3.28;;;21.50;89.80;;;;;;5031444;28;20045;-62
2022/06/11 10:25:34;;;;;;;12.20;3.03;;;21.80;90.30;;;;;;5051991;28;20483;-62
2022/06/11 10:28:12;;;;;;;18.50;3.35;;;22.00;88.10;;;;;;5045494;28;20048;-62
2022/06/11 10:30:44;;;;;;;11.00;2.88;;;22.20;85.90;;;;;;5050640;28;20067;-62
2022/06/11 10:33:20;;;;;;;13.60;3.28;;;22.30;85.10;;;;;;5047815;28;20063;-62
2022/06/11 10:36:04;;;;;;;13.10;2.78;;;22.10;82.30;;;;;;5043715;28;20084;-62
2022/06/11 10:38:44;;;;;;;12.10;2.75;;;22.10;82.10;;;;;;5047989;28;20575;-62
2022/06/11 10:41:27;;;;;;;13.32;2.80;;;22.10;83.20;;;;;;5049884;28;20049;-63
2022/06/11 10:44:35;;;;;;;15.20;3.20;;;22.30;81.60;;;;;;5050283;28;20052;-63
2022/06/11 10:47:14;;;;;;;15.63;3.50;;;22.40;82.90;;;;;;5049103;28;20131;-63
2022/06/11 10:49:40;;;;;;;12.65;2.85;;;22.50;80.80;;;;;;5049494;28;20319;-62
2022/06/11 10:52:46;;;;;;;15.35;3.70;;;22.60;82.30;;;;;;5049427;28;20053;-62
2022/06/11 10:55:38;;;;;;;17.65;3.42;;;22.80;82.10;;;;;;5037622;28;20036;-59
2022/06/11 10:58:33;;;;;;;15.30;3.20;;;23.00;82.70;;;;;;5034484;28;20070;-58
2022/06/11 11:01:34;;;;;;;14.77;3.30;;;23.30;81.70;;;;;;5050096;28;20044;-59
2022/06/11 11:04:27;;;;;;;19.55;3.40;;;23.40;78.40;;;;;;5044563;28;20040;-58
2022/06/11 11:07:06;;;;;;;;;;;23.50;76.20;;;;;;5039549;28;20047;-58
2022/06/11 11:09:32;;;;;;;11.52;3.15;;;23.60;78.80;;;;;;5043766;28;20672;-58
2022/06/11 11:12:01;;;;;;;12.90;3.72;;;23.50;75.80;;;;;;5047149;28;20049;-58
2022/06/11 11:14:38;;;;;;;24.15;3.63;;;23.60;74.90;;;;;;5040909;28;20108;-59
2022/06/11 11:17:26;;;;;;;12.43;2.90;;;23.60;74.00;;;;;;5043289;28;20115;-59
2022/06/11 11:22:54;;;;;;;15.07;2.80;;;23.90;71.30;;;;;;5045519;28;20037;-58
2022/06/11 11:25:33;;;;;;;11.60;3.15;;;23.80;69.60;;;;;;5046514;28;20062;-58
2022/06/11 11:28:00;;;;;;;13.05;2.30;;;23.80;69.50;;;;;;5032779;28;20544;-59
2022/06/11 11:30:34;;;;;;;11.02;2.53;;;23.90;68.90;;;;;;5048185;28;20048;-57
2022/06/11 11:33:33;;;;;;;12.32;2.88;;;24.10;69.90;;;;;;5044028;28;20147;-57
2022/06/11 11:36:19;;;;;;;14.23;3.10;;;24.40;67.80;;;;;;5040595;28;20052;-58
2022/06/11 11:38:57;;;;;;;13.18;3.05;;;24.40;68.00;;;;;;5043856;28;20063;-59
2022/06/11 11:41:31;;;;;;;16.20;3.10;;;24.40;68.00;;;;;;5041366;28;20047;-58
2022/06/11 11:43:58;;;;;;;15.27;3.30;;;24.30;67.10;;;;;;5039984;28;20048;-58
2022/06/11 11:46:31;;;;;;;12.73;3.00;;;24.10;67.90;;;;;;5045273;28;20080;-60
2022/06/11 11:48:58;;;;;;;13.27;2.75;;;23.90;67.40;;;;;;5047549;28;20102;-59
2022/06/11 11:51:33;;;;;;;13.07;3.17;;;23.60;67.70;;;;;;5046144;28;20044;-60
2022/06/11 11:54:01;;;;;;;12.63;2.95;;;23.70;66.20;;;;;;5047949;28;20547;-61
2022/06/11 11:56:31;;;;;;;14.32;3.00;;;23.80;67.50;;;;;;5046434;28;20495;-60
2022/06/11 11:59:04;;;;;;;11.18;2.72;;;24.00;65.90;;;;;;5050110;28;20045;-59
2022/06/11 12:01:30;;;;;;;;;;;24.10;65.20;;;;;;5051433;28;20558;-59
2022/06/11 12:04:17;;;;;;;13.38;2.92;;;24.30;67.40;;;;;;5042954;28;19920;-60
2022/06/11 12:06:50;;;;;;;14.85;2.80;;;24.40;65.90;;;;;;5049404;28;20044;-60
2022/06/11 12:09:50;;;;;;;10.30;2.85;;;24.80;66.60;;;;;;5046590;28;20079;-60
2022/06/11 12:12:28;;;;;;;12.82;2.97;;;24.90;64.30;;;;;;5044883;28;20474;-59
2022/06/11 12:15:14;;;;;;;15.65;2.85;;;25.00;64.50;;;;;;5049378;28;20040;-60
2022/06/11 12:17:42;;;;;;;9.70;2.45;;;25.00;62.90;;;;;;5049906;28;20427;-60
2022/06/11 12:20:33;;;;;;;9.20;2.33;;;25.00;62.70;;;;;;5045154;28;20048;-60
2022/06/11 12:23:19;;;;;;;12.02;2.45;;;25.00;62.00;;;;;;5045094;28;20406;-61
2022/06/11 12:26:01;;;;;;;13.23;2.40;;;24.70;61.80;;;;;;5048507;28;20414;-61
2022/06/11 12:28:48;;;;;;;9.50;2.05;;;24.60;62.20;;;;;;5048195;28;20059;-61
2022/06/11 12:31:14;;;;;;;18.38;2.35;;;24.60;61.80;;;;;;5043259;28;20122;-61
2022/06/11 12:33:45;;;;;;;9.15;2.53;;;24.60;60.60;;;;;;5041588;28;20044;-60
2022/06/11 12:36:23;;;;;;;11.40;2.33;;;24.60;60.40;;;;;;5045741;28;20677;-60
2022/06/11 12:39:11;;;;;;;7.60;1.92;;;24.60;59.40;;;;;;5054147;28;20474;-60
2022/06/11 12:41:56;;;;;;;9.23;1.88;;;24.60;59.50;;;;;;5045309;28;20052;-61
2022/06/11 12:44:36;;;;;;;10.43;2.30;;;24.60;59.40;;;;;;5049477;28;20109;-61
2022/06/11 12:47:27;;;;;;;7.18;2.10;;;24.50;57.90;;;;;;5039918;28;20163;-61
2022/06/11 12:50:00;;;;;;;11.32;2.38;;;24.40;58.90;;;;;;5049828;28;20121;-61
2022/06/11 12:52:56;;;;;;;10.30;2.30;;;24.50;61.30;;;;;;5045063;28;20059;-60
2022/06/11 12:56:04;;;;;;;12.45;2.35;;;24.70;61.20;;;;;;5049367;28;20057;-61
2022/06/11 12:59:04;;;;;;;10.45;2.40;;;25.00;60.60;;;;;;5029794;28;20045;-59
2022/06/11 13:01:52;;;;;;;11.27;2.20;;;25.00;59.90;;;;;;5045956;28;20048;-61
2022/06/11 13:04:31;;;;;;;7.68;1.88;;;24.90;60.50;;;;;;5040911;28;20072;-61
2022/06/11 13:07:06;;;;;;;9.68;2.30;;;25.00;59.70;;;;;;5044470;28;20041;-61
2022/06/11 13:10:02;;;;;;;10.27;2.08;;;25.10;60.20;;;;;;5048526;28;20105;-62
2022/06/11 13:12:45;;;;;;;10.15;2.03;;;25.40;60.10;;;;;;5049743;28;20079;-61
2022/06/11 13:15:32;;;;;;;8.70;2.30;;;25.60;58.70;;;;;;5050565;28;20377;-62
2022/06/11 13:18:39;;;;;;;8.93;2.08;;;25.80;57.50;;;;;;5021155;28;20056;-60